Time;durP1;ratioP1;P1;durP2;ratioP2;P2;SDS_P1;SDS_P2;PMS_P1;PMS_P2;Temp;Humidity;BMP_temperature;BMP_pressure;BME280_temperature;BME280_humidity;BME280_pressure;Samples;Min_cycle;Max_cycle;Signal;HPM_P1;HPM_P2
2023/08/17 00:00:10;;;;;;;3.28;2.55;;;19.90;99.90;;;;;;5056154;28;20179;-52
2023/08/17 00:02:35;;;;;;;3.55;2.35;;;19.90;99.90;;;;;;5055781;28;20219;-50
2023/08/17 00:05:01;;;;;;;3.33;2.00;;;20.00;99.90;;;;;;5055834;28;20222;-51
2023/08/17 00:07:27;;;;;;;4.65;2.42;;;19.90;99.90;;;;;;5055817;28;20174;-50
2023/08/17 00:09:52;;;;;;;3.65;2.33;;;19.80;99.90;;;;;;5055697;28;20175;-49
2023/08/17 00:12:18;;;;;;;2.90;2.40;;;19.90;99.90;;;;;;5055872;28;20187;-52
2023/08/17 00:14:44;;;;;;;2.78;2.20;;;19.90;99.90;;;;;;5055772;28;20179;-53
2023/08/17 00:17:09;;;;;;;3.13;2.42;;;19.90;99.90;;;;;;5055523;28;20163;-51
2023/08/17 00:19:35;;;;;;;3.08;2.10;;;20.00;99.90;;;;;;5055314;28;20229;-52
2023/08/17 00:22:00;;;;;;;3.03;2.50;;;19.80;99.90;;;;;;5055361;28;20668;-52
2023/08/17 00:24:26;;;;;;;4.45;2.40;;;19.60;99.90;;;;;;5055392;28;20183;-48
2023/08/17 00:26:52;;;;;;;2.53;2.15;;;19.60;99.90;;;;;;5054672;28;20168;-52
2023/08/17 00:29:17;;;;;;;4.75;2.50;;;19.70;99.90;;;;;;5055758;28;20186;-53
2023/08/17 00:31:43;;;;;;;3.58;2.13;;;19.60;99.90;;;;;;5055484;28;20253;-53
2023/08/17 00:34:09;;;;;;;3.13;2.78;;;19.50;99.90;;;;;;5055318;28;20254;-54
2023/08/17 00:36:34;;;;;;;3.95;2.80;;;19.40;99.90;;;;;;5055215;28;20266;-48
2023/08/17 00:39:01;;;;;;;3.80;2.30;;;19.30;99.90;;;;;;5055220;28;20293;-49
2023/08/17 00:41:28;;;;;;;4.43;2.50;;;19.30;99.90;;;;;;5054901;28;20207;-52
2023/08/17 00:43:54;;;;;;;3.75;2.65;;;19.30;99.90;;;;;;5055119;28;20210;-49
2023/08/17 00:46:22;;;;;;;2.95;2.45;;;19.30;99.90;;;;;;5055166;28;20632;-50
2023/08/17 00:48:48;;;;;;;3.15;2.85;;;19.20;99.90;;;;;;5054982;28;20184;-53
2023/08/17 00:51:14;;;;;;;3.47;2.97;;;19.20;99.90;;;;;;5055197;28;20183;-52
2023/08/17 00:53:40;;;;;;;4.03;2.25;;;19.20;99.90;;;;;;5054854;28;20655;-49
2023/08/17 00:56:06;;;;;;;2.83;2.33;;;19.20;99.90;;;;;;5055000;28;20187;-52
2023/08/17 00:58:32;;;;;;;3.20;2.47;;;19.20;99.90;;;;;;5054938;28;20171;-50
2023/08/17 01:00:58;;;;;;;2.63;2.20;;;19.30;99.90;;;;;;5054807;28;20214;-53
2023/08/17 01:03:27;;;;;;;5.15;2.58;;;19.30;99.90;;;;;;5054720;28;20186;-51
2023/08/17 01:05:53;;;;;;;4.93;2.72;;;19.30;99.90;;;;;;5054764;28;20523;-50
2023/08/17 01:08:18;;;;;;;3.47;2.47;;;19.20;99.90;;;;;;5054512;28;20172;-51
2023/08/17 01:11:21;;;;;;;5.32;2.80;;;19.30;99.90;;;;;;5054733;28;20187;-52
2023/08/17 01:13:57;;;;;;;5.90;2.60;;;19.20;99.90;;;;;;5054594;28;20171;-51
2023/08/17 01:16:31;;;;;;;4.65;2.47;;;19.40;99.90;;;;;;5054476;28;20224;-53
2023/08/17 01:18:58;;;;;;;4.43;2.83;;;19.30;99.90;;;;;;5053109;28;20245;-55
2023/08/17 01:21:29;;;;;;;5.53;2.78;;;19.20;99.90;;;;;;5054391;28;20214;-51
2023/08/17 01:23:59;;;;;;;5.68;2.63;;;19.20;99.90;;;;;;5054446;28;20321;-51
2023/08/17 01:26:24;;;;;;;3.67;2.60;;;19.10;99.90;;;;;;5054237;28;20549;-50
2023/08/17 01:28:50;;;;;;;7.05;2.90;;;19.30;99.90;;;;;;5054147;28;20176;-49
2023/08/17 01:31:31;;;;;;;5.70;2.90;;;19.30;99.90;;;;;;5054272;28;20198;-49
2023/08/17 01:34:07;;;;;;;4.30;2.70;;;19.30;99.90;;;;;;5054066;28;20505;-49
2023/08/17 01:36:35;;;;;;;4.28;2.70;;;19.30;99.90;;;;;;5053943;28;20182;-50
2023/08/17 01:39:03;;;;;;;4.38;2.85;;;19.40;99.90;;;;;;5053348;28;20253;-52
2023/08/17 01:41:30;;;;;;;4.80;2.65;;;19.30;99.90;;;;;;5053893;28;20206;-49
2023/08/17 01:43:57;;;;;;;3.50;2.03;;;19.30;99.90;;;;;;5053895;28;20185;-53
2023/08/17 01:46:28;;;;;;;4.28;2.83;;;19.40;99.90;;;;;;5053994;28;20512;-53
2023/08/17 01:48:55;;;;;;;5.32;2.72;;;19.30;99.90;;;;;;5054267;28;20237;-52
2023/08/17 01:51:20;;;;;;;4.13;2.50;;;19.30;99.90;;;;;;5053751;28;20603;-52
2023/08/17 01:53:46;;;;;;;4.45;2.35;;;19.30;99.90;;;;;;5053762;28;20201;-49
2023/08/17 01:56:12;;;;;;;5.07;2.67;;;19.30;99.90;;;;;;5053623;28;20216;-51
2023/08/17 01:58:38;;;;;;;4.93;2.65;;;19.30;99.90;;;;;;5053569;28;20171;-50
2023/08/17 02:01:03;;;;;;;3.28;2.35;;;19.10;99.90;;;;;;5053653;28;20203;-51
2023/08/17 02:03:29;;;;;;;4.93;2.50;;;19.10;99.90;;;;;;5053568;28;20175;-53
2023/08/17 02:05:58;;;;;;;3.42;2.63;;;19.20;99.90;;;;;;5053605;28;20167;-51
2023/08/17 02:08:24;;;;;;;4.22;2.80;;;19.10;99.90;;;;;;5053506;28;20253;-50
2023/08/17 02:10:49;;;;;;;4.78;2.95;;;19.10;99.90;;;;;;5053442;28;20262;-53
2023/08/17 02:13:16;;;;;;;3.45;2.50;;;19.00;99.90;;;;;;5053642;28;20179;-50
2023/08/17 02:15:42;;;;;;;3.05;2.53;;;18.80;99.90;;;;;;5052187;28;20175;-49
2023/08/17 02:18:08;;;;;;;4.05;2.30;;;18.80;99.90;;;;;;5053472;28;20174;-50
2023/08/17 02:20:34;;;;;;;4.05;2.65;;;18.70;99.90;;;;;;5053214;28;20310;-51
2023/08/17 02:22:59;;;;;;;3.90;2.35;;;18.70;99.90;;;;;;5053343;28;20266;-49
2023/08/17 02:25:26;;;;;;;5.75;2.72;;;18.70;99.90;;;;;;5053172;28;20175;-51
2023/08/17 02:27:52;;;;;;;4.05;2.45;;;18.70;99.90;;;;;;5053345;28;20179;-51
2023/08/17 02:30:17;;;;;;;4.20;2.50;;;18.70;99.90;;;;;;5053263;28;20245;-50
2023/08/17 02:32:43;;;;;;;3.15;2.58;;;18.80;99.90;;;;;;5053029;28;20164;-50
2023/08/17 02:35:09;;;;;;;3.40;2.60;;;18.90;99.90;;;;;;5053161;28;20171;-51
2023/08/17 02:37:35;;;;;;;3.88;2.30;;;18.80;99.90;;;;;;5053114;28;20179;-49
2023/08/17 02:40:01;;;;;;;4.55;2.70;;;18.60;99.90;;;;;;5052945;28;20178;-51
2023/08/17 02:42:26;;;;;;;4.53;2.50;;;18.50;99.90;;;;;;5052915;28;20684;-50
2023/08/17 02:44:52;;;;;;;6.90;2.80;;;18.50;99.90;;;;;;5052987;28;20179;-49
2023/08/17 02:47:18;;;;;;;4.82;2.80;;;18.50;99.90;;;;;;5053162;28;20191;-50
2023/08/17 02:49:43;;;;;;;5.45;3.40;;;18.40;99.90;;;;;;5055711;28;20182;-49
2023/08/17 02:52:09;;;;;;;3.80;2.70;;;18.50;99.90;;;;;;5057138;28;20187;-50
2023/08/17 02:54:35;;;;;;;5.15;2.83;;;18.50;99.90;;;;;;5057071;28;20559;-50
2023/08/17 02:57:00;;;;;;;5.10;2.95;;;18.50;99.90;;;;;;5056995;28;20182;-53
2023/08/17 02:59:26;;;;;;;4.82;2.85;;;18.60;99.90;;;;;;5057202;28;20182;-47
2023/08/17 03:01:53;;;;;;;6.18;2.80;;;18.50;99.90;;;;;;5056995;28;20214;-50
2023/08/17 03:04:18;;;;;;;4.72;2.60;;;18.60;99.90;;;;;;5056962;28;20229;-51
2023/08/17 03:06:44;;;;;;;4.60;2.78;;;18.80;99.90;;;;;;5056924;28;20207;-53
2023/08/17 03:09:10;;;;;;;4.78;2.80;;;18.80;99.90;;;;;;5056810;28;20225;-51
2023/08/17 03:11:36;;;;;;;4.55;2.67;;;18.70;99.90;;;;;;5056650;28;20274;-52
2023/08/17 03:14:02;;;;;;;5.15;2.78;;;18.60;99.90;;;;;;5056895;28;20199;-52
2023/08/17 03:16:29;;;;;;;3.45;2.65;;;18.60;99.90;;;;;;5056743;28;20194;-49
2023/08/17 03:18:56;;;;;;;4.68;3.00;;;18.60;99.90;;;;;;5056584;28;20231;-52
2023/08/17 03:21:22;;;;;;;4.35;3.10;;;18.60;99.90;;;;;;5056806;28;20199;-50
2023/08/17 03:23:48;;;;;;;4.75;2.95;;;18.60;99.90;;;;;;5056539;28;20179;-49
2023/08/17 03:26:14;;;;;;;4.25;2.58;;;18.50;99.90;;;;;;5056756;28;20632;-53
2023/08/17 03:28:40;;;;;;;3.97;2.80;;;18.60;99.90;;;;;;5056569;28;20178;-49
2023/08/17 03:31:08;;;;;;;3.47;3.00;;;18.50;99.90;;;;;;5056397;28;20176;-49
2023/08/17 03:33:35;;;;;;;4.20;2.92;;;18.60;99.90;;;;;;5056395;28;20640;-50
2023/08/17 03:36:01;;;;;;;6.55;2.78;;;18.50;99.90;;;;;;5056391;28;20172;-51
2023/08/17 03:38:27;;;;;;;5.25;3.00;;;18.50;99.90;;;;;;5056136;28;20686;-51
2023/08/17 03:40:52;;;;;;;4.93;2.95;;;18.60;99.90;;;;;;5056370;28;20206;-49
2023/08/17 03:43:18;;;;;;;4.22;2.90;;;18.60;99.90;;;;;;5056202;28;20175;-49
2023/08/17 03:45:44;;;;;;;4.40;2.95;;;18.60;99.90;;;;;;5056227;28;20636;-48
2023/08/17 03:48:10;;;;;;;4.00;2.83;;;18.60;99.90;;;;;;5056143;28;20232;-53
2023/08/17 03:50:36;;;;;;;5.60;2.70;;;18.60;99.90;;;;;;5054839;28;20179;-49
2023/08/17 03:53:01;;;;;;;5.93;2.78;;;18.70;99.90;;;;;;5056044;28;20176;-50
2023/08/17 03:55:27;;;;;;;5.03;2.95;;;18.70;99.90;;;;;;5056148;28;20224;-53
2023/08/17 03:57:52;;;;;;;5.57;2.65;;;18.70;99.90;;;;;;5056155;28;20191;-52
2023/08/17 04:00:18;;;;;;;3.05;2.47;;;18.70;99.90;;;;;;5054856;28;20241;-51
2023/08/17 04:02:44;;;;;;;5.10;2.67;;;18.70;99.90;;;;;;5055680;28;20214;-51
2023/08/17 04:05:10;;;;;;;6.65;2.95;;;18.60;99.90;;;;;;5055829;28;20179;-51
2023/08/17 04:07:36;;;;;;;4.28;2.70;;;18.70;99.90;;;;;;5055721;28;20254;-52
2023/08/17 04:10:03;;;;;;;5.10;2.78;;;18.50;99.90;;;;;;5055851;28;20187;-52
2023/08/17 04:12:28;;;;;;;5.25;2.63;;;18.60;99.90;;;;;;5055679;28;20187;-50
2023/08/17 04:14:54;;;;;;;6.45;2.72;;;18.50;99.90;;;;;;5055716;28;20176;-52
2023/08/17 04:17:20;;;;;;;4.47;2.45;;;18.60;99.90;;;;;;5055595;28;20175;-52
2023/08/17 04:19:46;;;;;;;5.47;2.65;;;18.60;99.90;;;;;;5055754;28;20333;-50
2023/08/17 04:22:12;;;;;;;4.40;2.67;;;18.60;99.90;;;;;;5055224;28;20214;-53
2023/08/17 04:24:38;;;;;;;3.30;2.47;;;18.60;99.90;;;;;;5055556;28;20175;-49
2023/08/17 04:27:04;;;;;;;5.13;2.60;;;18.70;99.90;;;;;;5055541;28;20270;-52
2023/08/17 04:29:30;;;;;;;5.13;2.72;;;18.60;99.90;;;;;;5055439;28;20175;-51
2023/08/17 04:31:56;;;;;;;5.13;3.28;;;18.70;99.90;;;;;;5055411;28;20262;-49
2023/08/17 04:34:22;;;;;;;4.68;2.83;;;18.60;99.90;;;;;;5055178;28;20206;-52
2023/08/17 04:36:47;;;;;;;3.67;2.80;;;18.50;99.90;;;;;;5055168;28;20171;-50
2023/08/17 04:39:13;;;;;;;3.03;2.55;;;18.50;99.90;;;;;;5055085;28;20171;-49
2023/08/17 04:41:39;;;;;;;3.92;2.70;;;18.50;99.90;;;;;;5055472;28;20241;-51
2023/08/17 04:44:05;;;;;;;2.40;2.20;;;18.40;99.90;;;;;;5054354;28;20249;-50
2023/08/17 04:46:30;;;;;;;4.03;2.50;;;18.50;99.90;;;;;;5055100;28;20179;-53
2023/08/17 04:48:56;;;;;;;4.93;2.50;;;18.40;99.90;;;;;;5055234;28;20626;-50
2023/08/17 04:51:21;;;;;;;3.40;2.45;;;18.50;99.90;;;;;;5054894;28;20179;-53
2023/08/17 04:53:47;;;;;;;5.97;2.28;;;18.40;99.90;;;;;;5054237;28;20175;-51
2023/08/17 04:56:13;;;;;;;5.82;2.42;;;18.40;99.90;;;;;;5054197;28;20202;-53
2023/08/17 04:58:38;;;;;;;5.80;2.60;;;18.20;99.90;;;;;;5054901;28;20237;-51
2023/08/17 05:01:04;;;;;;;3.58;2.38;;;18.30;99.90;;;;;;5054770;28;20191;-52
2023/08/17 05:03:31;;;;;;;3.55;2.30;;;18.30;99.90;;;;;;5054692;28;20229;-48
2023/08/17 05:05:56;;;;;;;6.25;2.30;;;18.30;99.90;;;;;;5054568;28;20591;-51
2023/08/17 05:08:22;;;;;;;3.05;2.33;;;18.40;99.90;;;;;;5054536;28;20179;-51
2023/08/17 05:10:48;;;;;;;4.53;2.20;;;18.30;99.90;;;;;;5053625;28;20600;-51
2023/08/17 05:13:14;;;;;;;4.07;2.30;;;18.20;99.90;;;;;;5053991;28;20175;-50
2023/08/17 05:15:39;;;;;;;2.85;2.30;;;18.20;99.90;;;;;;5053978;28;20228;-48
2023/08/17 05:18:05;;;;;;;3.72;2.05;;;18.30;99.90;;;;;;5054421;28;20175;-52
2023/08/17 05:20:31;;;;;;;3.47;2.13;;;18.30;99.90;;;;;;5051312;28;20227;-51
2023/08/17 05:22:56;;;;;;;4.10;2.33;;;18.20;99.90;;;;;;5052667;28;20180;-53
2023/08/17 05:25:22;;;;;;;3.55;2.22;;;18.30;99.90;;;;;;5054317;28;20171;-48
2023/08/17 05:27:49;;;;;;;8.85;2.83;;;18.30;99.90;;;;;;5054425;28;20286;-49
2023/08/17 05:30:15;;;;;;;2.95;2.20;;;18.40;99.90;;;;;;5054003;28;20517;-50
2023/08/17 05:32:41;;;;;;;6.10;2.85;;;18.30;99.90;;;;;;5054094;28;20198;-47
2023/08/17 05:35:07;;;;;;;7.10;2.65;;;18.20;99.90;;;;;;5054088;28;20174;-50
2023/08/17 05:37:33;;;;;;;5.82;2.90;;;18.30;99.90;;;;;;5052624;28;20747;-47
2023/08/17 05:39:58;;;;;;;3.63;2.50;;;18.30;99.90;;;;;;5054160;28;20186;-50
2023/08/17 05:42:24;;;;;;;5.38;2.53;;;18.30;99.90;;;;;;5053903;28;20229;-50
2023/08/17 05:44:50;;;;;;;4.00;2.17;;;18.30;99.90;;;;;;5053971;28;20222;-50
2023/08/17 05:47:17;;;;;;;6.95;2.40;;;18.30;99.90;;;;;;5053841;28;20182;-48
2023/08/17 05:49:43;;;;;;;4.90;2.40;;;18.30;99.90;;;;;;5053758;28;20211;-51
2023/08/17 05:52:09;;;;;;;3.40;2.20;;;18.30;99.90;;;;;;5053697;28;20183;-51
2023/08/17 05:54:34;;;;;;;7.53;2.72;;;18.20;99.90;;;;;;5053810;28;20167;-49
2023/08/17 05:57:00;;;;;;;3.70;2.55;;;18.30;99.90;;;;;;5053873;28;20238;-52
2023/08/17 05:59:26;;;;;;;4.00;2.10;;;18.40;99.90;;;;;;5053697;28;20171;-50
2023/08/17 06:01:51;;;;;;;6.80;2.35;;;18.40;99.90;;;;;;5053623;28;20226;-49
2023/08/17 06:04:18;;;;;;;3.72;2.35;;;18.20;99.90;;;;;;5053583;28;20187;-51
2023/08/17 06:06:43;;;;;;;7.85;2.67;;;18.20;99.90;;;;;;5053415;28;20182;-49
2023/08/17 06:09:09;;;;;;;6.00;2.35;;;18.20;99.90;;;;;;5053673;28;20171;-51
2023/08/17 06:11:35;;;;;;;4.03;2.33;;;18.20;99.90;;;;;;5053559;28;20543;-49
2023/08/17 06:14:00;;;;;;;4.15;2.20;;;18.20;99.90;;;;;;5053501;28;20175;-48
2023/08/17 06:16:26;;;;;;;4.03;2.50;;;18.20;99.90;;;;;;5053466;28;20637;-47
2023/08/17 06:18:52;;;;;;;5.70;2.22;;;18.20;99.90;;;;;;5053164;28;20750;-48
2023/08/17 06:21:17;;;;;;;2.70;2.20;;;18.30;99.90;;;;;;5053197;28;20206;-50
2023/08/17 06:23:43;;;;;;;3.78;2.15;;;18.30;99.90;;;;;;5052815;28;20183;-49
2023/08/17 06:26:09;;;;;;;3.53;2.40;;;18.20;99.90;;;;;;5053213;28;20174;-51
2023/08/17 06:28:35;;;;;;;3.03;2.33;;;18.10;99.90;;;;;;5053286;28;20179;-49
2023/08/17 06:31:00;;;;;;;4.55;2.25;;;18.20;99.90;;;;;;5053163;28;20191;-50
2023/08/17 06:33:26;;;;;;;4.38;2.55;;;18.20;99.90;;;;;;5053214;28;20583;-48
2023/08/17 06:35:52;;;;;;;3.05;2.20;;;18.30;99.90;;;;;;5053037;28;20868;-51
2023/08/17 06:38:17;;;;;;;4.47;2.30;;;18.20;99.90;;;;;;5053290;28;20179;-51
2023/08/17 06:40:43;;;;;;;2.88;2.30;;;18.10;99.90;;;;;;5053189;28;20632;-49
2023/08/17 06:43:09;;;;;;;4.35;2.53;;;18.10;99.90;;;;;;5053112;28;20183;-49
2023/08/17 06:45:35;;;;;;;4.18;2.25;;;18.30;99.90;;;;;;5053179;28;20171;-48
2023/08/17 06:48:01;;;;;;;3.53;2.10;;;18.40;99.90;;;;;;5053047;28;20309;-54
2023/08/17 06:50:28;;;;;;;5.22;2.47;;;18.40;99.90;;;;;;5052935;28;20203;-48
2023/08/17 06:52:54;;;;;;;6.03;2.50;;;18.40;99.90;;;;;;5053133;28;20190;-51
2023/08/17 06:55:20;;;;;;;6.40;2.40;;;18.40;99.90;;;;;;5053046;28;20172;-52
2023/08/17 06:57:46;;;;;;;7.45;2.70;;;18.20;99.90;;;;;;5053064;28;20513;-52
2023/08/17 07:00:13;;;;;;;5.60;2.95;;;18.10;99.90;;;;;;5052854;28;20187;-50
2023/08/17 07:02:38;;;;;;;4.10;2.40;;;18.30;99.90;;;;;;5052739;28;20233;-51
2023/08/17 07:05:05;;;;;;;5.05;2.83;;;18.40;99.90;;;;;;5052821;28;20256;-51
2023/08/17 07:07:34;;;;;;;5.18;2.85;;;18.50;99.90;;;;;;5052956;28;20222;-50
2023/08/17 07:10:00;;;;;;;4.63;2.85;;;18.40;99.90;;;;;;5052905;28;20266;-52
2023/08/17 07:12:25;;;;;;;7.80;3.78;;;18.50;99.90;;;;;;5052757;28;20688;-49
2023/08/17 07:14:51;;;;;;;6.70;3.60;;;18.40;99.90;;;;;;5052805;28;20175;-48
2023/08/17 07:17:17;;;;;;;5.75;3.63;;;18.40;99.90;;;;;;5052708;28;20182;-53
2023/08/17 07:19:42;;;;;;;4.50;3.35;;;18.30;99.90;;;;;;5052676;28;20314;-52
2023/08/17 07:22:08;;;;;;;7.20;3.28;;;18.40;99.90;;;;;;5052531;28;20290;-50
2023/08/17 07:24:34;;;;;;;5.95;3.33;;;18.50;99.90;;;;;;5052760;28;20232;-51
2023/08/17 07:26:59;;;;;;;5.13;3.20;;;18.70;99.90;;;;;;5052774;28;20171;-50
2023/08/17 07:29:25;;;;;;;4.72;3.45;;;18.70;99.90;;;;;;5052683;28;20513;-50
2023/08/17 07:31:51;;;;;;;5.22;3.20;;;18.80;99.90;;;;;;5052594;28;20406;-51
2023/08/17 07:34:16;;;;;;;7.18;3.45;;;18.80;99.90;;;;;;5052559;28;20175;-50
2023/08/17 07:36:42;;;;;;;4.35;3.28;;;18.70;99.90;;;;;;5056345;28;20571;-52
2023/08/17 07:39:08;;;;;;;7.68;3.33;;;18.60;99.90;;;;;;5056261;28;20237;-53
2023/08/17 07:41:34;;;;;;;5.57;3.70;;;18.70;99.90;;;;;;5056211;28;20290;-53
2023/08/17 07:43:59;;;;;;;6.72;3.63;;;18.90;99.90;;;;;;5056302;28;20686;-51
2023/08/17 07:46:25;;;;;;;4.78;3.97;;;19.00;99.90;;;;;;5056561;28;20186;-51
2023/08/17 07:48:50;;;;;;;4.35;3.40;;;19.00;99.90;;;;;;5056011;28;20258;-50
2023/08/17 07:51:16;;;;;;;6.95;3.90;;;18.90;99.90;;;;;;5056236;28;20187;-52
2023/08/17 07:53:42;;;;;;;7.63;3.92;;;19.00;99.90;;;;;;5056156;28;20214;-50
2023/08/17 07:56:08;;;;;;;5.57;3.50;;;19.00;99.90;;;;;;5056078;28;20171;-53
2023/08/17 07:58:33;;;;;;;5.22;3.42;;;19.10;99.90;;;;;;5056039;28;20206;-53
2023/08/17 08:00:59;;;;;;;7.03;4.18;;;19.20;99.90;;;;;;5055836;28;20659;-51
2023/08/17 08:03:25;;;;;;;7.53;4.10;;;19.10;99.90;;;;;;5055699;28;20183;-53
2023/08/17 08:05:51;;;;;;;6.78;3.88;;;18.90;99.90;;;;;;5055711;28;20182;-52
2023/08/17 08:08:17;;;;;;;6.75;4.00;;;19.00;99.90;;;;;;5055994;28;20228;-52
2023/08/17 08:10:43;;;;;;;8.57;4.55;;;19.10;99.90;;;;;;5055687;28;20266;-50
2023/08/17 08:13:09;;;;;;;5.97;4.63;;;19.00;99.90;;;;;;5055613;28;20180;-51
2023/08/17 08:15:35;;;;;;;5.28;4.30;;;19.00;99.90;;;;;;5054334;28;20179;-50
2023/08/17 08:18:00;;;;;;;7.70;5.28;;;18.90;99.90;;;;;;5055500;28;20257;-49
2023/08/17 08:20:26;;;;;;;5.95;4.55;;;19.10;99.90;;;;;;5055789;28;20688;-51
2023/08/17 08:22:51;;;;;;;6.65;4.00;;;19.10;99.90;;;;;;5055534;28;20219;-48
2023/08/17 08:25:17;;;;;;;7.45;5.10;;;19.10;99.90;;;;;;5055497;28;20638;-49
2023/08/17 08:27:43;;;;;;;7.70;4.57;;;19.20;99.90;;;;;;5055331;28;20172;-50
2023/08/17 08:30:09;;;;;;;7.75;4.40;;;19.10;99.90;;;;;;5055402;28;20186;-52
2023/08/17 08:32:34;;;;;;;6.80;4.20;;;19.00;99.90;;;;;;5055102;28;20179;-52
2023/08/17 08:35:00;;;;;;;7.35;4.00;;;19.20;99.90;;;;;;5055527;28;20183;-51
2023/08/17 08:37:26;;;;;;;5.05;3.92;;;19.30;99.90;;;;;;5055354;28;20175;-52
2023/08/17 08:39:53;;;;;;;4.50;3.70;;;19.10;99.90;;;;;;5055170;28;20168;-51
2023/08/17 08:42:20;;;;;;;5.20;3.78;;;19.10;99.90;;;;;;5055054;28;20751;-51
2023/08/17 08:44:46;;;;;;;6.97;3.95;;;19.30;99.90;;;;;;5055175;28;20175;-52
2023/08/17 08:47:13;;;;;;;7.65;3.65;;;19.40;99.90;;;;;;5054344;28;20253;-50
2023/08/17 08:50:02;;;;;;;6.75;3.60;;;19.50;99.90;;;;;;5055187;28;20198;-53
2023/08/17 08:52:49;;;;;;;7.15;3.60;;;19.40;99.90;;;;;;5054998;28;20187;-51
2023/08/17 08:55:22;;;;;;;5.80;3.10;;;19.50;99.90;;;;;;5054928;28;20167;-50
2023/08/17 08:57:49;;;;;;;7.13;3.85;;;19.60;99.90;;;;;;5054837;28;20263;-53
2023/08/17 09:00:17;;;;;;;5.88;3.10;;;19.80;99.90;;;;;;5054968;28;20552;-52
2023/08/17 09:02:43;;;;;;;5.55;3.30;;;19.80;99.90;;;;;;5054645;28;20229;-50
2023/08/17 09:05:10;;;;;;;7.72;3.83;;;20.00;99.90;;;;;;5054928;28;20182;-52
2023/08/17 09:07:37;;;;;;;8.35;3.78;;;19.90;99.90;;;;;;5054680;28;20669;-52
2023/08/17 09:10:04;;;;;;;8.02;4.20;;;20.00;99.90;;;;;;5054568;28;20207;-52
2023/08/17 09:12:30;;;;;;;4.82;3.92;;;19.90;99.90;;;;;;5054764;28;20194;-51
2023/08/17 09:14:56;;;;;;;6.25;3.90;;;20.00;99.90;;;;;;5054919;28;20182;-53
2023/08/17 09:17:26;;;;;;;4.43;3.95;;;19.90;99.90;;;;;;5054596;28;20262;-50
2023/08/17 09:19:52;;;;;;;7.22;4.05;;;19.80;99.90;;;;;;5054340;28;20223;-50
2023/08/17 09:22:37;;;;;;;6.07;4.20;;;19.80;99.90;;;;;;5054297;28;20670;-51
2023/08/17 09:25:04;;;;;;;6.63;4.20;;;20.00;99.90;;;;;;5054605;28;20656;-51
2023/08/17 09:27:32;;;;;;;6.20;4.03;;;19.80;99.90;;;;;;5054350;28;20198;-52
2023/08/17 09:30:09;;;;;;;5.43;3.50;;;19.80;99.90;;;;;;5054369;28;20246;-53
2023/08/17 09:32:35;;;;;;;5.63;4.38;;;19.90;99.90;;;;;;5054044;28;20535;-52
2023/08/17 09:35:02;;;;;;;9.32;4.97;;;19.70;99.90;;;;;;5054161;28;20172;-50
2023/08/17 09:37:28;;;;;;;7.63;4.95;;;19.80;99.90;;;;;;5054078;28;20702;-49
2023/08/17 09:39:54;;;;;;;8.27;5.72;;;19.80;99.90;;;;;;5054221;28;20175;-52
2023/08/17 09:42:22;;;;;;;10.73;5.30;;;19.80;99.90;;;;;;5054030;28;20206;-52
2023/08/17 09:44:51;;;;;;;9.50;6.30;;;19.90;99.90;;;;;;5053941;28;20663;-50
2023/08/17 09:47:17;;;;;;;6.47;4.95;;;19.90;99.90;;;;;;5053919;28;20571;-47
2023/08/17 09:49:49;;;;;;;9.23;5.50;;;19.90;99.90;;;;;;5053740;28;20183;-51
2023/08/17 09:52:15;;;;;;;7.78;5.43;;;20.20;99.90;;;;;;5053806;28;20171;-50
2023/08/17 09:54:41;;;;;;;7.93;5.88;;;20.20;99.90;;;;;;5052544;28;20234;-52
2023/08/17 09:57:12;;;;;;;7.55;6.00;;;20.30;99.90;;;;;;5053788;28;20171;-48
2023/08/17 09:59:37;;;;;;;7.07;5.50;;;20.50;99.90;;;;;;5053009;28;20183;-50
2023/08/17 10:02:07;;;;;;;7.85;6.00;;;20.60;99.90;;;;;;5053523;28;20207;-48
2023/08/17 10:04:35;;;;;;;7.30;5.18;;;20.80;99.90;;;;;;5053545;28;20179;-51
2023/08/17 10:07:03;;;;;;;9.88;6.55;;;20.90;99.90;;;;;;5053773;28;20179;-48
2023/08/17 10:09:36;;;;;;;6.65;5.70;;;20.80;99.90;;;;;;5053592;28;20225;-53
2023/08/17 10:12:09;;;;;;;7.90;5.70;;;20.90;99.90;;;;;;5053537;28;20213;-50
2023/08/17 10:14:41;;;;;;;7.40;6.20;;;21.00;99.90;;;;;;5053914;28;20176;-49
2023/08/17 10:17:15;;;;;;;6.53;5.53;;;20.90;99.90;;;;;;5053645;28;20164;-51
2023/08/17 10:19:51;;;;;;;5.88;5.05;;;20.90;99.90;;;;;;5053434;28;20239;-51
2023/08/17 10:22:26;;;;;;;8.38;5.53;;;21.10;99.90;;;;;;5053518;28;20229;-47
2023/08/17 10:24:58;;;;;;;8.48;5.90;;;21.20;99.90;;;;;;5053484;28;20578;-51
2023/08/17 10:27:25;;;;;;;7.32;5.10;;;21.20;99.90;;;;;;5053185;28;20175;-49
2023/08/17 10:29:51;;;;;;;10.23;5.75;;;21.20;99.90;;;;;;5053488;28;20179;-50
2023/08/17 10:32:17;;;;;;;9.65;5.57;;;21.20;99.90;;;;;;5053437;28;20174;-52
2023/08/17 10:34:44;;;;;;;6.85;5.75;;;21.30;99.90;;;;;;5053258;28;20171;-51
2023/08/17 10:37:11;;;;;;;6.32;4.90;;;21.30;99.90;;;;;;5053215;28;20171;-51
2023/08/17 10:39:46;;;;;;;6.47;5.20;;;21.10;99.90;;;;;;5053235;28;20229;-50
2023/08/17 10:42:13;;;;;;;7.00;5.65;;;20.90;99.90;;;;;;5053288;28;20203;-52
2023/08/17 10:44:46;;;;;;;10.65;5.68;;;20.90;99.90;;;;;;5053293;28;20195;-52
2023/08/17 10:47:38;;;;;;;8.45;5.50;;;20.90;99.90;;;;;;5053259;28;20175;-52
2023/08/17 10:50:09;;;;;;;8.35;5.40;;;20.80;99.90;;;;;;5051806;28;20632;-51
2023/08/17 10:52:37;;;;;;;7.75;5.68;;;20.80;99.90;;;;;;5053217;28;20167;-50
2023/08/17 10:55:11;;;;;;;6.72;5.10;;;20.80;99.90;;;;;;5053126;28;20198;-51
2023/08/17 10:57:37;;;;;;;7.55;5.72;;;20.80;99.90;;;;;;5053271;28;20168;-51
2023/08/17 11:00:07;;;;;;;6.47;5.18;;;20.80;99.90;;;;;;5053150;28;20171;-50
2023/08/17 11:02:33;;;;;;;6.88;5.10;;;20.80;99.90;;;;;;5052782;28;20300;-53
2023/08/17 11:05:00;;;;;;;8.63;5.80;;;20.80;99.90;;;;;;5053105;28;20206;-53
2023/08/17 11:07:28;;;;;;;7.30;5.68;;;20.80;99.90;;;;;;5053018;28;20172;-50
2023/08/17 11:09:54;;;;;;;8.32;6.15;;;20.80;99.90;;;;;;5054259;28;20254;-47
2023/08/17 11:12:26;;;;;;;7.00;6.30;;;20.90;99.90;;;;;;5056269;28;20190;-51
2023/08/17 11:14:52;;;;;;;6.57;5.60;;;20.70;99.90;;;;;;5056795;28;20664;-49
2023/08/17 11:17:20;;;;;;;7.03;5.88;;;20.80;99.90;;;;;;5056674;28;20175;-51
2023/08/17 11:19:46;;;;;;;7.28;6.05;;;20.90;99.90;;;;;;5056873;28;20229;-53
2023/08/17 11:22:12;;;;;;;5.97;5.30;;;21.00;99.90;;;;;;5056746;28;20210;-51
2023/08/17 11:24:40;;;;;;;9.60;6.35;;;21.10;99.90;;;;;;5056821;28;20282;-50
2023/08/17 11:27:06;;;;;;;8.75;6.53;;;21.20;99.90;;;;;;5056829;28;20585;-51
2023/08/17 11:29:33;;;;;;;10.23;6.28;;;21.20;99.90;;;;;;5055426;28;20218;-51
2023/08/17 11:31:58;;;;;;;8.75;6.68;;;21.20;99.90;;;;;;5056439;28;20186;-51
2023/08/17 11:34:24;;;;;;;6.97;5.65;;;21.00;99.90;;;;;;5056558;28;20171;-53
2023/08/17 11:36:50;;;;;;;7.80;6.05;;;21.10;99.90;;;;;;5056536;28;20172;-51
2023/08/17 11:39:15;;;;;;;7.85;5.90;;;21.10;99.90;;;;;;5056570;28;20163;-53
2023/08/17 11:41:41;;;;;;;9.50;6.32;;;21.10;99.90;;;;;;5056274;28;20203;-49
2023/08/17 11:44:07;;;;;;;11.65;8.13;;;21.00;99.90;;;;;;5056414;28;20176;-50
2023/08/17 11:46:32;;;;;;;9.25;8.05;;;21.00;99.90;;;;;;5056087;28;20209;-51
2023/08/17 11:49:01;;;;;;;10.10;7.93;;;21.00;99.90;;;;;;5056168;28;20179;-52
2023/08/17 11:51:31;;;;;;;13.65;11.32;;;20.90;99.90;;;;;;5056254;28;20184;-50
2023/08/17 11:54:00;;;;;;;14.55;13.15;;;20.90;99.90;;;;;;5056218;28;20498;-53
2023/08/17 11:56:26;;;;;;;15.20;12.43;;;20.80;99.90;;;;;;5055996;28;20183;-53
2023/08/17 11:58:52;;;;;;;12.75;11.32;;;20.90;99.90;;;;;;5055934;28;20270;-51
2023/08/17 12:01:17;;;;;;;10.05;8.77;;;20.80;99.90;;;;;;5056234;28;20210;-48
2023/08/17 12:03:43;;;;;;;12.52;7.80;;;20.90;99.90;;;;;;5056099;28;20179;-53
2023/08/17 12:06:09;;;;;;;10.30;8.25;;;20.80;99.90;;;;;;5055956;28;20297;-52
2023/08/17 12:08:35;;;;;;;10.57;8.20;;;20.70;99.90;;;;;;5055920;28;20178;-52
2023/08/17 12:11:03;;;;;;;11.05;7.60;;;20.70;99.90;;;;;;5055934;28;20262;-48
2023/08/17 12:13:33;;;;;;;9.65;7.43;;;20.70;99.90;;;;;;5055732;28;20262;-52
2023/08/17 12:15:59;;;;;;;8.93;8.02;;;20.60;99.90;;;;;;5055586;28;20764;-53
2023/08/17 12:18:25;;;;;;;8.63;7.82;;;20.80;99.90;;;;;;5055605;28;20185;-51
2023/08/17 12:20:55;;;;;;;8.48;7.60;;;20.70;99.90;;;;;;5055200;28;20528;-51
2023/08/17 12:23:21;;;;;;;7.35;5.80;;;20.70;99.90;;;;;;5055237;28;20179;-50
2023/08/17 12:25:52;;;;;;;8.38;7.07;;;20.70;99.90;;;;;;5055565;28;20168;-48
2023/08/17 12:28:18;;;;;;;8.95;6.72;;;20.80;99.90;;;;;;5055430;28;20576;-50
2023/08/17 12:30:44;;;;;;;8.00;6.80;;;20.70;99.90;;;;;;5055625;28;20181;-49
2023/08/17 12:33:09;;;;;;;8.18;6.53;;;20.70;99.90;;;;;;5055418;28;20189;-50
2023/08/17 12:35:35;;;;;;;9.70;8.63;;;20.80;99.90;;;;;;5055545;28;20175;-53
2023/08/17 12:38:00;;;;;;;8.50;7.70;;;20.80;99.90;;;;;;5055372;28;20174;-48
2023/08/17 12:40:26;;;;;;;9.13;7.85;;;20.80;99.90;;;;;;5055275;28;20176;-51
2023/08/17 12:42:52;;;;;;;9.45;6.78;;;21.00;99.90;;;;;;5055182;28;20203;-49